Time;durP1;ratioP1;P1;durP2;ratioP2;P2;SDS_P1;SDS_P2;PMS_P1;PMS_P2;Temp;Humidity;BMP_temperature;BMP_pressure;BME280_temperature;BME280_humidity;BME280_pressure;Samples;Min_cycle;Max_cycle;Signal;HPM_P1;HPM_P2
2021/05/25 00:02:19;;;;;;;6.83;2.92;;;;;;;13.32;70.47;99841.49;2146473;82;32141;-59
2021/05/25 00:05:30;;;;;;;4.85;2.85;;;;;;;13.35;70.63;99835.06;2146506;82;33315;-59
2021/05/25 00:08:32;;;;;;;5.05;3.70;;;;;;;13.36;70.72;99838.98;2145908;82;31414;-59
2021/05/25 00:11:34;;;;;;;5.05;3.12;;;;;;;13.41;70.76;99832.45;2145885;82;27603;-59
2021/05/25 00:14:36;;;;;;;5.78;2.90;;;;;;;13.45;70.77;99838.86;2146527;82;29895;-61
2021/05/25 00:17:38;;;;;;;4.62;3.08;;;;;;;13.47;70.86;99840.97;2146355;82;31932;-59
2021/05/25 00:20:39;;;;;;;5.58;2.90;;;;;;;13.47;70.70;99837.42;2146353;82;34107;-59
2021/05/25 00:23:41;;;;;;;4.85;3.50;;;;;;;13.45;70.98;99821.37;2146581;82;29719;-60
2021/05/25 00:26:43;;;;;;;5.10;3.50;;;;;;;13.41;70.80;99822.55;2141475;82;27984;-63
2021/05/25 00:29:45;;;;;;;6.67;3.27;;;;;;;13.40;71.08;99826.23;2141371;82;29202;-59
2021/05/25 00:32:47;;;;;;;5.33;3.00;;;;;;;13.36;71.02;99820.64;2146386;82;31916;-59
2021/05/25 00:35:51;;;;;;;4.40;3.02;;;;;;;13.33;71.24;99810.09;2145847;82;33332;-59
2021/05/25 00:38:53;;;;;;;4.95;3.20;;;;;;;13.30;71.32;99807.14;2153824;82;29386;-63
2021/05/25 00:41:55;;;;;;;3.87;3.30;;;;;;;13.26;71.29;99805.62;2158050;81;27669;-59
2021/05/25 00:44:57;;;;;;;3.95;3.33;;;;;;;13.22;71.36;99804.98;2157555;82;29907;-59
2021/05/25 00:47:59;;;;;;;5.45;3.10;;;;;;;13.22;71.49;99801.41;2154189;82;32143;-60
2021/05/25 00:51:01;;;;;;;5.75;3.27;;;;;;;13.22;71.66;99801.41;2164545;81;32974;-60
2021/05/25 00:54:04;;;;;;;4.17;3.22;;;;;;;13.21;71.61;99799.22;2158441;82;30479;-60
2021/05/25 00:57:07;;;;;;;5.12;3.20;;;;;;;13.19;71.83;99781.44;2158543;82;28170;-60
2021/05/25 01:00:11;;;;;;;3.58;3.17;;;;;;;13.16;71.88;99782.99;2158446;82;29731;-61
2021/05/25 01:03:19;;;;;;;3.50;2.60;;;;;;;13.14;71.67;99781.77;2158691;82;30984;-61
2021/05/25 01:06:22;;;;;;;9.73;3.72;;;;;;;13.14;71.81;99781.77;2159405;82;33641;-60
2021/05/25 01:09:24;;;;;;;5.30;2.90;;;;;;;13.15;71.74;99777.27;2123931;83;29318;-60
2021/05/25 01:12:30;;;;;;;3.55;2.98;;;;;;;13.15;71.80;99768.70;2159017;82;27673;-60
2021/05/25 01:15:31;;;;;;;6.00;2.98;;;;;;;13.16;71.80;99763.70;2160146;82;28636;-59
2021/05/25 01:18:34;;;;;;;4.65;2.98;;;;;;;13.16;71.84;99769.55;2159382;82;30988;-60
2021/05/25 01:21:38;;;;;;;4.28;3.17;;;;;;;13.15;71.78;99753.91;2156953;82;33741;-60
2021/05/25 01:24:39;;;;;;;3.55;3.25;;;;;;;13.15;71.78;99752.56;2158869;80;29310;-60
2021/05/25 01:27:42;;;;;;;6.42;3.30;;;;;;;13.14;71.95;99750.84;2160441;82;27538;-60
2021/05/25 01:30:47;;;;;;;7.22;3.30;;;;;;;13.10;71.97;99743.94;2144691;83;28625;-61
2021/05/25 01:33:49;;;;;;;3.90;3.40;;;;;;;13.09;71.86;99746.75;2083890;85;31206;-60
2021/05/25 01:36:51;;;;;;;3.55;3.00;;;;;;;13.05;71.96;99740.23;2148647;82;34135;-60
2021/05/25 01:39:55;;;;;;;6.08;3.62;;;;;;;13.05;71.97;99739.39;2156128;82;30066;-59
2021/05/25 01:42:56;;;;;;;3.08;2.77;;;;;;;13.05;72.12;99746.95;2123658;83;27635;-61
2021/05/25 01:45:59;;;;;;;4.70;3.58;;;;;;;13.05;72.23;99753.67;2160149;82;29003;-60
2021/05/25 01:49:01;;;;;;;6.35;3.60;;;;;;;13.05;72.11;99748.80;2158903;82;31253;-59
2021/05/25 01:52:04;;;;;;;4.92;3.67;;;;;;;13.07;72.24;99742.34;2160658;82;33061;-60
2021/05/25 01:55:08;;;;;;;4.95;3.80;;;;;;;13.07;72.36;99742.84;2158196;82;29479;-60
2021/05/25 01:58:25;;;;;;;3.80;3.50;;;;;;;13.09;72.27;99742.22;2140357;82;27640;-61
2021/05/25 02:01:26;;;;;;;6.15;3.95;;;;;;;13.10;72.27;99743.09;2158181;82;29749;-60
2021/05/25 02:04:31;;;;;;;7.55;3.75;;;;;;;13.13;72.34;99746.42;2158377;82;31364;-59
2021/05/25 02:07:32;;;;;;;7.53;3.85;;;;;;;13.16;72.42;99743.53;2128889;82;33700;-59
2021/05/25 02:10:47;;;;;;;5.35;3.50;;;;;;;13.18;72.48;99745.62;2160636;82;29729;-59
2021/05/25 02:13:48;;;;;;;;;;;;;;;13.19;72.33;99738.41;2161646;82;27597;-60
2021/05/25 02:16:50;;;;;;;4.72;3.60;;;;;;;13.21;72.48;99738.70;2160516;82;29193;-65
2021/05/25 02:19:52;;;;;;;4.95;3.37;;;;;;;13.20;72.48;99734.75;2158296;81;32196;-60
2021/05/25 02:22:54;;;;;;;4.83;3.55;;;;;;;13.20;72.40;99729.38;2158279;82;34066;-60
2021/05/25 02:25:56;;;;;;;7.28;4.00;;;;;;;13.21;72.41;99721.68;2156883;82;29757;-60
2021/05/25 02:28:58;;;;;;;5.25;3.00;;;;;;;13.21;72.36;99718.99;2157539;81;27584;-67
2021/05/25 02:32:00;;;;;;;5.45;3.47;;;;;;;13.20;72.48;99722.65;2157694;82;29704;-61
2021/05/25 02:35:04;;;;;;;5.37;3.62;;;;;;;13.20;72.51;99718.61;2157190;82;32313;-64
2021/05/25 02:38:07;;;;;;;4.05;3.65;;;;;;;13.18;72.49;99721.89;2158389;82;34082;-59
2021/05/25 02:41:09;;;;;;;3.95;3.52;;;;;;;13.16;72.37;99721.13;2159765;82;30059;-65
2021/05/25 02:44:11;;;;;;;6.15;4.22;;;;;;;13.12;72.28;99725.88;2160228;82;27612;-60
2021/05/25 02:47:12;;;;;;;4.58;3.35;;;;;;;13.11;72.43;99718.77;2158785;82;29774;-60
2021/05/25 02:50:15;;;;;;;4.60;3.27;;;;;;;13.12;72.65;99723.69;2160346;82;32293;-60
2021/05/25 02:53:17;;;;;;;4.75;3.83;;;;;;;13.13;72.63;99721.38;2160265;82;32964;-60
2021/05/25 02:56:19;;;;;;;6.92;3.60;;;;;;;13.13;72.53;99726.75;2156856;82;29688;-59
2021/05/25 02:59:21;;;;;;;4.60;3.92;;;;;;;13.13;72.69;99728.94;2156909;82;27571;-60
2021/05/25 03:02:24;;;;;;;4.10;3.62;;;;;;;13.13;72.72;99725.41;2158638;82;28665;-60
2021/05/25 03:05:26;;;;;;;7.55;4.08;;;;;;;13.15;72.68;99734.23;2159598;82;30991;-60
2021/05/25 03:08:28;;;;;;;4.83;3.95;;;;;;;13.15;72.76;99745.84;2158509;82;32960;-59
2021/05/25 03:11:30;;;;;;;4.83;4.30;;;;;;;13.17;72.77;99760.51;2158547;82;30109;-59
2021/05/25 03:14:32;;;;;;;6.22;4.12;;;;;;;13.17;72.74;99764.08;2158798;82;28164;-59
2021/05/25 03:17:34;;;;;;;5.17;4.00;;;;;;;13.18;72.71;99777.91;2159354;80;28381;-59
2021/05/25 03:20:37;;;;;;;4.92;4.25;;;;;;;13.19;72.77;99774.25;2160199;82;31366;-61
2021/05/25 03:23:39;;;;;;;7.37;4.80;;;;;;;13.20;72.82;99767.91;2159509;82;33748;-60
2021/05/25 03:26:40;;;;;;;5.50;4.67;;;;;;;13.21;72.91;99770.97;2159992;82;30557;-59
2021/05/25 03:29:42;;;;;;;6.85;4.58;;;;;;;13.21;72.89;99778.17;2166452;81;27645;-63
2021/05/25 03:32:44;;;;;;;5.15;4.50;;;;;;;13.22;72.98;99778.08;2153106;82;29014;-63
2021/05/25 03:35:46;;;;;;;5.35;4.30;;;;;;;13.27;73.11;99773.72;2157234;82;31370;-60
2021/05/25 03:38:48;;;;;;;5.83;4.62;;;;;;;13.34;73.18;99785.75;2156745;81;33658;-59
2021/05/25 03:41:50;;;;;;;7.25;4.53;;;;;;;13.38;73.12;99775.16;2156148;82;29735;-59
2021/05/25 03:44:53;;;;;;;5.75;4.30;;;;;;;13.45;73.22;99778.31;2157573;82;27694;-59
2021/05/25 03:47:55;;;;;;;5.08;3.95;;;;;;;13.53;73.21;99776.43;2158117;82;29776;-59
2021/05/25 03:50:57;;;;;;;4.20;3.83;;;;;;;13.59;72.98;99784.08;2158796;82;31542;-59
2021/05/25 03:54:04;;;;;;;3.95;3.58;;;;;;;13.62;72.88;99787.91;2123428;83;32977;-60
2021/05/25 04:00:24;;;;;;;4.85;3.87;;;;;;;13.71;72.61;99781.48;2160436;82;28086;-60
2021/05/25 04:03:26;;;;;;;3.90;3.50;;;;;;;13.72;72.46;99794.84;2129839;82;29396;-59
2021/05/25 04:06:28;;;;;;;5.87;4.00;;;;;;;13.73;72.40;99791.66;2133184;82;32255;-60
2021/05/25 04:09:30;;;;;;;3.90;3.35;;;;;;;13.74;72.34;99798.27;2132770;82;33347;-59
2021/05/25 04:12:32;;;;;;;4.08;3.67;;;;;;;13.79;72.34;99795.27;2158195;82;30398;-59
2021/05/25 04:15:34;;;;;;;3.72;3.35;;;;;;;13.87;72.43;99794.22;2158259;82;27707;-61
2021/05/25 04:18:36;;;;;;;5.92;3.10;;;;;;;13.96;72.41;99792.70;2158432;82;29620;-60
2021/05/25 04:21:37;;;;;;;3.70;3.17;;;;;;;14.04;72.36;99794.84;2144902;83;30775;-60
2021/05/25 04:24:39;;;;;;;3.45;3.15;;;;;;;14.11;72.23;99792.09;2084380;85;33292;-60
2021/05/25 04:27:42;;;;;;;3.75;3.22;;;;;;;14.16;72.19;99802.52;2148817;82;29681;-60
2021/05/25 04:30:44;;;;;;;3.05;2.72;;;;;;;14.19;72.13;99799.61;2156297;82;27669;-58
2021/05/25 04:33:46;;;;;;;4.87;2.87;;;;;;;14.22;72.12;99800.23;2123600;83;28984;-59
2021/05/25 04:36:48;;;;;;;5.08;2.52;;;;;;;14.58;72.75;99810.63;2158918;82;31390;-62
2021/05/25 04:39:50;;;;;;;2.15;1.95;;;;;;;15.48;73.17;99800.30;2142525;82;33982;-60
2021/05/25 04:42:52;;;;;;;2.05;1.62;;;;;;;16.53;72.69;99803.22;2077492;85;30595;-63
2021/05/25 04:45:53;;;;;;;1.82;1.57;;;;;;;17.67;71.75;99802.20;2077577;85;27525;-61
2021/05/25 04:48:55;;;;;;;1.45;1.32;;;;;;;18.86;70.73;99788.48;2077690;85;29146;-61
2021/05/25 04:51:57;;;;;;;1.80;1.57;;;;;;;20.01;69.18;99789.45;2078974;85;32096;-60
2021/05/25 04:54:59;;;;;;;3.02;1.62;;;;;;;21.09;67.01;99795.56;2079226;85;34068;-61
2021/05/25 04:58:01;;;;;;;2.10;1.50;;;;;;;22.18;65.59;99800.69;2079349;85;29757;-61
2021/05/25 05:01:03;;;;;;;2.02;1.60;;;;;;;23.30;64.42;99798.55;2079422;85;27859;-60
2021/05/25 05:04:05;;;;;;;4.30;1.77;;;;;;;24.30;62.74;99801.06;2079211;85;29803;-61
2021/05/25 05:07:07;;;;;;;2.45;1.67;;;;;;;25.28;60.98;99806.44;2079356;85;32230;-61
2021/05/25 05:10:10;;;;;;;2.98;1.30;;;;;;;26.20;58.98;99803.66;2079176;85;34264;-61
2021/05/25 05:13:12;;;;;;;2.00;1.40;;;;;;;26.68;56.81;99808.66;2079019;85;29327;-64
2021/05/25 05:16:14;;;;;;;2.20;1.42;;;;;;;26.77;55.67;99816.25;2079155;85;27590;-62
2021/05/25 05:19:17;;;;;;;3.52;1.50;;;;;;;26.44;53.82;99829.08;2079214;85;29817;-61
2021/05/25 05:22:19;;;;;;;5.62;1.80;;;;;;;25.95;53.11;99839.58;2079272;85;31036;-63
2021/05/25 05:25:21;;;;;;;4.60;2.27;;;;;;;25.42;52.46;99847.30;2079192;85;33285;-63
2021/05/25 05:28:23;;;;;;;3.87;1.85;;;;;;;24.85;52.16;99846.67;2078950;85;29450;-62
2021/05/25 05:31:25;;;;;;;3.92;2.15;;;;;;;24.41;51.99;99851.30;2079380;85;28007;-61
2021/05/25 05:34:27;;;;;;;3.72;2.00;;;;;;;23.90;51.51;99859.83;2079533;85;29733;-60
2021/05/25 05:37:28;;;;;;;6.12;2.12;;;;;;;23.45;51.58;99857.50;2079117;85;31382;-60
2021/05/25 05:40:31;;;;;;;2.87;1.72;;;;;;;23.33;51.81;99858.34;2096107;82;34126;-60
2021/05/25 05:43:33;;;;;;;3.52;1.55;;;;;;;23.17;51.59;99853.68;2084417;85;30119;-64
2021/05/25 05:46:36;;;;;;;2.72;1.82;;;;;;;22.96;51.25;99853.33;2110259;84;27597;-61
2021/05/25 05:49:39;;;;;;;3.55;1.75;;;;;;;22.81;51.29;99853.99;2119636;83;29442;-61
2021/05/25 05:52:41;;;;;;;3.72;1.87;;;;;;;22.89;50.67;99853.16;2117109;83;31712;-60
2021/05/25 05:55:43;;;;;;;2.55;1.60;;;;;;;23.00;50.95;99851.45;2084351;85;34113;-62
2021/05/25 05:58:46;;;;;;;5.70;1.90;;;;;;;23.02;50.63;99845.81;2110281;84;30484;-63
2021/05/25 06:01:48;;;;;;;3.62;1.75;;;;;;;23.04;50.21;99847.38;2140105;83;27658;-62
2021/05/25 06:04:49;;;;;;;4.15;1.60;;;;;;;22.95;49.68;99846.16;2144546;83;29130;-61
2021/05/25 06:07:51;;;;;;;4.70;1.85;;;;;;;23.17;49.52;99846.01;2144648;83;32094;-71
2021/05/25 06:10:53;;;;;;;3.33;1.37;;;;;;;23.79;49.96;99841.89;2144538;82;34102;-70
2021/05/25 06:13:55;;;;;;;3.52;1.65;;;;;;;24.55;48.86;99839.63;2144440;83;30045;-72
2021/05/25 06:16:58;;;;;;;2.52;1.57;;;;;;;25.13;47.88;99848.03;2142389;82;27711;-70
2021/05/25 06:20:00;;;;;;;3.40;1.37;;;;;;;25.81;47.91;99853.64;2144623;82;29617;-67
2021/05/25 06:23:01;;;;;;;1.90;1.32;;;;;;;26.16;45.85;99863.56;2124083;82;30955;-67
2021/05/25 06:26:05;;;;;;;5.70;1.62;;;;;;;26.16;45.78;99860.81;2083456;85;32941;-68
2021/05/25 06:29:06;;;;;;;2.83;1.07;;;;;;;26.27;44.79;99855.38;2109134;83;29198;-70
2021/05/25 06:32:10;;;;;;;2.30;1.27;;;;;;;26.22;44.19;99862.81;2117793;84;27624;-73
2021/05/25 06:35:12;;;;;;;3.37;1.40;;;;;;;26.29;43.83;99864.28;2116925;84;28620;-74
2021/05/25 06:38:14;;;;;;;5.12;1.70;;;;;;;26.30;42.86;99859.66;2119137;83;30998;-72
2021/05/25 06:41:16;;;;;;;2.90;1.50;;;;;;;26.01;43.40;99878.64;2146786;81;33668;-71
2021/05/25 06:44:18;;;;;;;2.17;1.37;;;;;;;25.77;43.22;99886.06;2195846;81;29499;-71
2021/05/25 06:47:20;;;;;;;3.92;1.32;;;;;;;25.49;42.91;99896.77;2139218;82;28165;-69
2021/05/25 06:50:21;;;;;;;2.15;1.25;;;;;;;25.00;42.28;99887.00;2120498;83;29394;-70
2021/05/25 06:53:23;;;;;;;3.62;1.27;;;;;;;24.53;42.32;99894.22;2158501;82;30449;-73
2021/05/25 06:56:25;;;;;;;1.30;1.05;;;;;;;24.08;42.84;99897.45;2160383;82;33011;-72
2021/05/25 06:59:27;;;;;;;1.30;1.20;;;;;;;23.70;43.08;99894.38;2160497;82;29325;-71
2021/05/25 07:02:28;;;;;;;5.00;1.60;;;;;;;23.27;42.99;99905.48;2158655;82;28136;-72
2021/05/25 07:05:30;;;;;;;3.58;1.30;;;;;;;23.12;43.69;99912.10;2160366;82;28577;-70
2021/05/25 07:08:32;;;;;;;2.40;1.17;;;;;;;23.34;43.62;99906.53;2160510;82;30969;-71
2021/05/25 07:11:34;;;;;;;1.60;1.20;;;;;;;23.25;43.30;99908.89;2158814;82;32990;-69
2021/05/25 07:14:36;;;;;;;3.37;1.17;;;;;;;23.14;43.52;99927.83;2160312;82;30060;-69
2021/05/25 07:17:38;;;;;;;2.83;1.30;;;;;;;22.75;43.19;99934.69;2159549;82;27624;-69
2021/05/25 07:20:42;;;;;;;2.10;1.40;;;;;;;22.33;43.77;99936.85;2157839;82;28642;-70
2021/05/25 07:23:43;;;;;;;5.17;1.50;;;;;;;22.01;44.14;99946.02;2160752;82;31566;-68
2021/05/25 07:26:45;;;;;;;1.55;1.17;;;;;;;21.74;44.28;99940.22;2133451;82;32917;-69
2021/05/25 07:29:47;;;;;;;2.35;1.32;;;;;;;21.48;44.69;99940.13;2157274;82;29332;-60
2021/05/25 07:32:52;;;;;;;2.98;1.35;;;;;;;21.06;44.39;99958.77;2156451;82;27616;-61
2021/05/25 07:35:54;;;;;;;2.12;1.35;;;;;;;20.64;44.93;99961.46;2160318;82;29449;-59
2021/05/25 07:38:56;;;;;;;2.60;1.60;;;;;;;20.25;45.29;99979.79;2158003;82;31578;-61
2021/05/25 07:41:58;;;;;;;1.95;1.30;;;;;;;19.91;45.86;99983.00;2129044;82;33717;-59
2021/05/25 07:45:00;;;;;;;1.35;1.10;;;;;;;19.48;46.27;99988.70;2129782;82;30479;-59
2021/05/25 07:48:06;;;;;;;1.62;1.05;;;;;;;19.11;46.26;99997.50;2128137;83;27568;-59
2021/05/25 07:51:08;;;;;;;2.60;1.20;;;;;;;18.80;46.54;100004.31;2121672;82;28602;-60
2021/05/25 07:54:10;;;;;;;3.22;1.22;;;;;;;18.52;47.22;100025.76;2115832;84;31019;-60
2021/05/25 07:57:12;;;;;;;3.50;0.90;;;;;;;18.31;47.67;100029.82;2102799;84;33856;-59
2021/05/25 08:00:15;;;;;;;3.52;1.20;;;;;;;18.02;48.03;100021.88;2121693;83;29494;-60
2021/05/25 08:03:19;;;;;;;1.27;1.00;;;;;;;17.70;48.47;100029.51;2118323;82;28073;-61
2021/05/25 08:06:40;;;;;;;3.80;1.17;;;;;;;17.04;49.63;100022.29;2116263;84;28605;-61
2021/05/25 08:09:47;;;;;;;7.45;1.67;;;;;;;17.04;49.63;100022.29;2157437;81;31696;-61
2021/05/25 08:12:49;;;;;;;2.42;1.20;;;;;;;16.89;49.80;100039.23;2158184;82;32969;-61
2021/05/25 08:15:53;;;;;;;2.67;1.52;;;;;;;16.42;50.96;100019.55;2158529;82;30384;-61
2021/05/25 08:22:08;;;;;;;1.80;1.00;;;;;;;16.40;51.20;100048.03;2174827;81;28637;-71
2021/05/25 08:25:11;;;;;;;1.45;1.20;;;;;;;16.32;51.62;100054.55;2174402;81;31856;-60
2021/05/25 08:28:14;;;;;;;3.15;1.35;;;;;;;16.25;52.11;100063.13;2156220;82;32978;-65
2021/05/25 08:31:15;;;;;;;2.42;1.37;;;;;;;16.20;52.62;100071.22;2165231;81;30437;-61
2021/05/25 08:34:18;;;;;;;2.15;1.27;;;;;;;16.15;53.07;100078.34;2150655;82;27606;-60
2021/05/25 08:37:20;;;;;;;2.60;1.25;;;;;;;16.12;53.69;100089.38;2188205;81;29410;-61
2021/05/25 08:40:23;;;;;;;1.85;1.37;;;;;;;16.08;53.91;100089.23;2188285;81;31933;-60
2021/05/25 08:43:26;;;;;;;2.45;1.25;;;;;;;16.14;54.41;100090.12;2188323;80;32952;-60
2021/05/25 08:46:28;;;;;;;1.67;1.57;;;;;;;16.24;54.58;100091.13;2150735;82;30443;-60
2021/05/25 08:49:34;;;;;;;2.25;1.05;;;;;;;16.34;54.98;100087.23;2188426;81;27569;-61
2021/05/25 08:52:36;;;;;;;1.65;1.20;;;;;;;16.40;55.24;100081.36;2171630;80;29352;-61
2021/05/25 08:55:40;;;;;;;2.30;1.37;;;;;;;16.43;55.26;100082.95;2158152;82;31629;-60
2021/05/25 08:58:42;;;;;;;3.15;1.55;;;;;;;16.48;55.18;100086.64;2174790;81;33797;-62
2021/05/25 09:01:46;;;;;;;1.67;1.30;;;;;;;16.55;55.49;100087.39;2157849;82;29535;-60
2021/05/25 09:05:04;;;;;;;3.12;1.52;;;;;;;16.60;55.54;100082.12;2158197;82;27843;-60
2021/05/25 09:08:06;;;;;;;2.85;1.70;;;;;;;16.66;55.70;100081.14;2172367;81;28621;-60
2021/05/25 09:11:10;;;;;;;2.25;1.62;;;;;;;16.68;56.11;100087.30;2200450;79;32177;-61
2021/05/25 09:14:13;;;;;;;3.33;1.80;;;;;;;16.69;56.08;100080.91;2198482;81;33624;-60
2021/05/25 09:17:24;;;;;;;3.85;2.20;;;;;;;16.69;55.92;100063.33;2198436;81;30428;-60
2021/05/25 09:20:43;;;;;;;4.60;2.12;;;;;;;16.70;56.29;100058.80;2198562;81;27664;-60
2021/05/25 09:23:46;;;;;;;3.62;1.52;;;;;;;16.79;56.33;100066.67;2198431;80;29415;-62
2021/05/25 09:26:52;;;;;;;2.20;1.60;;;;;;;16.79;56.33;100066.67;2200505;79;31407;-60
2021/05/25 09:29:53;;;;;;;2.35;1.90;;;;;;;16.86;56.42;100078.23;2198674;80;33127;-60
2021/05/25 09:33:01;;;;;;;4.67;1.92;;;;;;;16.92;56.43;100075.99;2198586;80;29935;-60
2021/05/25 09:36:11;;;;;;;2.62;1.77;;;;;;;16.97;56.89;100060.30;2198800;80;27704;-60
2021/05/25 09:39:13;;;;;;;5.65;1.55;;;;;;;17.03;55.68;100051.69;2202052;79;29903;-60
2021/05/25 09:42:17;;;;;;;2.60;1.72;;;;;;;16.95;55.57;100025.72;2234650;79;31834;-59
2021/05/25 09:45:20;;;;;;;1.63;1.20;;;;;;;17.10;55.50;100048.84;2217304;79;34062;-59
2021/05/25 09:48:30;;;;;;;4.00;2.25;;;;;;;17.15;55.78;100057.93;2166134;79;30383;-62
2021/05/25 09:51:32;;;;;;;1.98;1.32;;;;;;;17.18;56.02;100063.09;2235641;79;27488;-59
2021/05/25 09:54:35;;;;;;;3.62;1.65;;;;;;;17.36;55.59;100105.91;2185788;79;29144;-59
2021/05/25 09:57:50;;;;;;;3.25;1.55;;;;;;;17.48;55.26;100085.09;2159765;82;31729;-70
2021/05/25 10:00:52;;;;;;;1.90;1.40;;;;;;;17.56;54.77;100059.09;2190104;79;32481;-73
2021/05/25 10:03:57;;;;;;;3.30;1.85;;;;;;;17.70;54.72;100048.95;2160584;82;29409;-72
2021/05/25 10:07:03;;;;;;;2.58;1.47;;;;;;;17.88;55.12;100043.81;2135745;82;27629;-58
2021/05/25 10:10:07;;;;;;;2.42;1.22;;;;;;;18.03;54.70;100056.12;2174994;80;29318;-58
2021/05/25 10:13:10;;;;;;;4.93;2.13;;;;;;;18.05;54.62;100043.27;2188333;81;31706;-59
2021/05/25 10:16:15;;;;;;;1.77;1.40;;;;;;;18.23;54.60;100096.92;2188354;81;32985;-58
2021/05/25 10:22:25;;;;;;;1.75;1.60;;;;;;;18.39;54.48;100096.48;2198663;80;27690;-60
2021/05/25 10:25:31;;;;;;;4.80;1.95;;;;;;;18.49;54.40;100090.61;2188853;80;29398;-60
2021/05/25 10:28:33;;;;;;;2.77;2.00;;;;;;;18.65;54.23;100109.62;2194903;80;31720;-59
2021/05/25 10:31:38;;;;;;;6.90;2.95;;;;;;;18.73;53.93;100104.41;2185007;80;33852;-60
2021/05/25 10:34:43;;;;;;;3.45;2.33;;;;;;;18.79;53.93;100088.92;2198255;80;30302;-60
2021/05/25 10:38:04;;;;;;;3.02;1.90;;;;;;;18.83;53.67;100093.09;2187764;80;27590;-59
2021/05/25 10:41:08;;;;;;;17.90;2.40;;;;;;;18.88;53.47;100087.77;2148941;81;27686;-61
2021/05/25 10:44:10;;;;;;;3.77;1.30;;;;;;;18.98;52.79;100095.48;2188477;80;32153;-60
2021/05/25 10:47:28;;;;;;;3.95;1.72;;;;;;;19.11;52.74;100102.05;2177269;80;33929;-62
2021/05/25 10:50:33;;;;;;;2.83;1.67;;;;;;;19.26;52.00;100086.25;2191179;80;30185;-61
2021/05/25 10:53:35;;;;;;;8.50;4.42;;;;;;;19.48;51.80;100089.23;2189428;80;27580;-69
2021/05/25 10:56:37;;;;;;;1.85;1.67;;;;;;;19.65;51.45;100092.27;2148145;81;29762;-66
2021/05/25 11:00:18;;;;;;;2.25;1.80;;;;;;;19.74;50.79;100090.05;2150107;81;30977;-62
2021/05/25 11:03:21;;;;;;;2.90;1.75;;;;;;;19.80;50.75;100096.78;2072418;84;35090;-60
2021/05/25 11:06:31;;;;;;;4.10;1.80;;;;;;;19.97;50.00;100091.19;2039122;85;31555;-64
2021/05/25 11:09:34;;;;;;;3.55;2.10;;;;;;;20.12;50.30;100086.16;2037882;86;37300;-59
2021/05/25 11:12:39;;;;;;;6.28;1.95;;;;;;;20.52;50.13;100089.73;2068140;86;28772;-59
2021/05/25 11:16:17;;;;;;;3.55;1.60;;;;;;;20.69;49.40;100094.91;2097015;84;31805;-69
2021/05/25 11:19:43;;;;;;;2.90;1.70;;;;;;;20.67;47.96;100090.11;2086050;84;33515;-63
2021/05/25 11:22:39;;;;;;;2.80;2.20;;;;;;;20.51;48.53;100077.97;2065795;85;29952;-60
2021/05/25 11:25:42;;;;;;;2.80;2.02;;;;;;;20.47;47.94;100061.09;2077385;85;27359;-66
2021/05/25 11:29:18;;;;;;;4.03;2.00;;;;;;;20.58;47.95;100065.98;2044799;85;29310;-58
2021/05/25 11:32:27;;;;;;;4.22;1.80;;;;;;;20.72;48.06;100066.88;2078237;85;32125;-61
2021/05/25 11:35:31;;;;;;;3.15;1.90;;;;;;;20.89;47.80;100075.30;2083691;84;33655;-68
2021/05/25 11:38:34;;;;;;;2.25;1.70;;;;;;;21.07;48.10;100079.48;2066559;82;30164;-58
2021/05/25 11:41:36;;;;;;;3.50;1.87;;;;;;;21.32;47.87;100081.14;2150719;82;27624;-58
2021/05/25 11:44:44;;;;;;;3.90;1.90;;;;;;;21.43;46.85;100078.72;2150561;82;29383;-58
2021/05/25 11:47:58;;;;;;;5.10;1.70;;;;;;;21.45;46.83;100086.23;2212612;79;30955;-58
2021/05/25 11:51:10;;;;;;;4.78;1.60;;;;;;;21.48;46.96;100090.88;2164823;80;33005;-58
2021/05/25 11:54:16;;;;;;;3.67;1.67;;;;;;;21.48;46.53;100077.24;2219192;80;29702;-58
2021/05/25 11:57:46;;;;;;;3.12;1.40;;;;;;;21.65;46.53;100069.28;2220284;79;27572;-58
2021/05/25 12:00:49;;;;;;;2.83;1.47;;;;;;;21.75;46.18;100068.72;2218745;79;29795;-60
2021/05/25 12:03:51;;;;;;;2.90;1.80;;;;;;;21.91;45.59;100084.37;2188015;80;31559;-59
2021/05/25 12:06:59;;;;;;;3.40;2.60;;;;;;;22.01;45.66;100090.59;2212763;80;34192;-63
2021/05/25 12:10:02;;;;;;;2.55;1.77;;;;;;;22.08;45.50;100087.25;2174918;81;29407;-60
2021/05/25 12:13:07;;;;;;;3.15;1.57;;;;;;;22.11;45.09;100088.31;2148574;82;28189;-59
2021/05/25 12:16:13;;;;;;;1.90;1.52;;;;;;;22.10;44.77;100093.42;2175100;81;29472;-61
2021/05/25 12:19:22;;;;;;;3.60;2.00;;;;;;;22.04;44.80;100094.91;2151545;81;32231;-59
2021/05/25 12:22:34;;;;;;;1.65;1.30;;;;;;;21.87;44.00;100088.41;2147742;82;34120;-60
2021/05/25 12:25:37;;;;;;;2.35;1.90;;;;;;;21.79;44.07;100093.80;2187789;80;31105;-64
2021/05/25 12:28:39;;;;;;;5.30;1.85;;;;;;;21.76;43.67;100083.20;2218523;79;27588;-58
2021/05/25 12:31:42;;;;;;;4.08;1.70;;;;;;;21.88;43.75;100080.59;2217843;80;28689;-59
2021/05/25 12:34:44;;;;;;;2.67;1.80;;;;;;;21.98;43.01;100072.33;2213149;79;32079;-62
2021/05/25 12:38:13;;;;;;;2.20;1.42;;;;;;;22.13;43.07;100063.09;2201909;80;33819;-62
2021/05/25 12:41:14;;;;;;;3.75;2.02;;;;;;;22.27;42.49;100061.16;2187862;81;30240;-59
2021/05/25 12:44:20;;;;;;;4.17;1.30;;;;;;;22.39;42.71;100074.05;2187980;81;27502;-65
2021/05/25 12:47:23;;;;;;;2.60;1.37;;;;;;;22.32;42.67;100079.78;2188483;81;28605;-68
2021/05/25 12:50:41;;;;;;;3.50;1.50;;;;;;;22.24;42.37;100090.65;2166764;81;31788;-61
2021/05/25 12:53:55;;;;;;;2.42;1.40;;;;;;;22.07;42.24;100106.00;2188180;81;34091;-59
2021/05/25 12:56:57;;;;;;;3.17;1.80;;;;;;;21.80;42.21;100107.79;2187835;81;30302;-58
2021/05/25 13:00:04;;;;;;;2.15;1.30;;;;;;;21.47;42.33;100104.67;2188472;81;28244;-58
2021/05/25 13:03:26;;;;;;;3.35;1.80;;;;;;;21.19;42.29;100111.45;2188119;81;28645;-58
2021/05/25 13:06:42;;;;;;;6.75;1.72;;;;;;;20.86;42.21;100113.72;2166868;81;28108;-61
2021/05/25 13:09:41;;;;;;;2.90;1.40;;;;;;;20.44;41.62;100128.04;2152879;81;32988;-59
2021/05/25 13:12:43;;;;;;;6.15;2.65;;;;;;;20.11;41.62;100132.03;2160618;82;29879;-59
2021/05/25 13:15:52;;;;;;;4.75;2.40;;;;;;;19.81;41.76;100145.59;2159907;82;27662;-70
2021/05/25 13:22:00;;;;;;;2.85;1.57;;;;;;;19.41;42.96;100143.75;1946443;91;31830;-61
2021/05/25 13:25:05;;;;;;;4.28;2.00;;;;;;;19.34;43.40;100143.95;2012283;86;33060;-65
2021/05/25 13:28:08;;;;;;;2.60;1.40;;;;;;;19.24;43.53;100143.91;2036072;87;29345;-61
2021/05/25 13:31:31;;;;;;;1.52;1.42;;;;;;;19.10;43.69;100151.44;2036080;87;27810;-62
2021/05/25 13:34:34;;;;;;;2.42;1.62;;;;;;;18.99;44.00;100144.70;2050811;86;28626;-61
2021/05/25 13:37:38;;;;;;;5.07;1.60;;;;;;;18.93;44.53;100143.36;2068044;86;32400;-61
2021/05/25 13:40:42;;;;;;;2.17;1.40;;;;;;;18.91;44.61;100146.70;2067866;86;32980;-69
2021/05/25 13:43:49;;;;;;;1.50;1.20;;;;;;;18.92;44.48;100136.22;2065674;86;30126;-61
2021/05/25 13:46:53;;;;;;;3.37;1.27;;;;;;;18.98;44.07;100132.13;2067722;86;27658;-63
2021/05/25 13:49:59;;;;;;;2.92;1.20;;;;;;;19.04;44.19;100124.81;2084008;82;28663;-65
2021/05/25 13:53:01;;;;;;;3.12;1.20;;;;;;;19.17;44.57;100132.73;2082092;84;31938;-59
2021/05/25 13:56:18;;;;;;;3.95;1.35;;;;;;;19.30;44.58;100136.55;2081917;85;34069;-59
2021/05/25 13:59:19;;;;;;;3.55;1.20;;;;;;;19.42;44.66;100127.81;2094823;82;27841;-59
2021/05/25 14:02:21;;;;;;;2.23;1.20;;;;;;;19.57;44.61;100112.84;2140193;82;27634;-60
2021/05/25 14:05:26;;;;;;;1.00;0.72;;;;;;;19.72;44.28;100104.28;2151516;82;29387;-63
2021/05/25 14:08:29;;;;;;;1.95;1.25;;;;;;;19.84;44.10;100092.78;2151958;82;30484;-59
2021/05/25 14:11:31;;;;;;;4.55;1.10;;;;;;;19.98;43.60;100092.91;2148865;82;32971;-60
2021/05/25 14:14:34;;;;;;;2.10;1.50;;;;;;;20.04;43.27;100095.04;2151377;82;30726;-59
2021/05/25 14:17:36;;;;;;;3.47;1.40;;;;;;;20.03;43.64;100092.84;2150717;82;27662;-60
2021/05/25 14:20:39;;;;;;;4.95;1.30;;;;;;;20.08;43.82;100094.28;2151321;82;29925;-59
2021/05/25 14:23:42;;;;;;;3.65;1.40;;;;;;;20.15;43.77;100096.77;2120076;80;30983;-61
2021/05/25 14:26:45;;;;;;;6.97;1.40;;;;;;;20.21;43.75;100098.92;2198431;80;34090;-61
2021/05/25 14:29:48;;;;;;;5.25;1.30;;;;;;;20.29;43.81;100108.56;2220261;79;30069;-61
2021/05/25 14:32:50;;;;;;;1.47;1.37;;;;;;;20.39;43.72;100111.80;2235789;79;27604;-59
2021/05/25 14:35:53;;;;;;;3.83;1.27;;;;;;;20.43;43.21;100118.16;2235540;79;28659;-59